createdAt,value
2018-08-28T00:00:16.175Z,956.08
2018-08-28T00:01:16.168Z,956.07
2018-08-28T00:02:16.162Z,956.07
2018-08-28T00:03:16.155Z,956.07
2018-08-28T00:04:16.148Z,956.12
2018-08-28T00:05:16.141Z,956.13
2018-08-28T00:06:16.141Z,956.12
2018-08-28T00:07:16.124Z,956.16
2018-08-28T00:08:16.118Z,956.14
2018-08-28T00:09:16.110Z,956.19
2018-08-28T00:10:16.105Z,956.15
2018-08-28T00:11:16.095Z,956.22
2018-08-28T00:12:16.090Z,956.17
2018-08-28T00:13:16.081Z,956.21
2018-08-28T00:14:16.075Z,956.19
2018-08-28T00:15:16.073Z,956.18
2018-08-28T00:16:16.062Z,956.19
2018-08-28T00:17:16.056Z,956.2
2018-08-28T00:18:16.053Z,956.19
2018-08-28T00:19:16.040Z,956.26
2018-08-28T00:20:16.033Z,956.26
2018-08-28T00:21:16.026Z,956.27
2018-08-28T00:22:16.018Z,956.25
2018-08-28T00:23:16.012Z,956.28
2018-08-28T00:24:16.004Z,956.29
2018-08-28T00:25:15.997Z,956.27
2018-08-28T00:26:15.990Z,956.29
2018-08-28T00:27:15.983Z,956.23
2018-08-28T00:28:15.978Z,956.25
2018-08-28T00:29:15.968Z,956.25
2018-08-28T00:30:15.961Z,956.23
2018-08-28T00:31:15.955Z,956.24
2018-08-28T00:32:15.948Z,956.28
2018-08-28T00:33:15.939Z,956.27
2018-08-28T00:34:15.932Z,956.3
2018-08-28T00:35:15.925Z,956.3
2018-08-28T00:36:15.919Z,956.33
2018-08-28T00:37:15.910Z,956.29
2018-08-28T00:38:15.904Z,956.3
2018-08-28T00:39:15.897Z,956.3
2018-08-28T00:40:15.889Z,956.29
2018-08-28T00:41:15.885Z,956.33
2018-08-28T00:42:15.875Z,956.34
2018-08-28T00:43:15.870Z,956.35
2018-08-28T00:44:15.860Z,956.33
2018-08-28T00:45:15.853Z,956.37
2018-08-28T00:46:15.846Z,956.38
2018-08-28T00:47:15.839Z,956.35
2018-08-28T00:48:15.830Z,956.35
2018-08-28T00:49:15.826Z,956.37
2018-08-28T00:50:15.817Z,956.38
2018-08-28T00:51:15.810Z,956.33
2018-08-28T00:52:15.816Z,956.34
2018-08-28T00:53:15.796Z,956.35
2018-08-28T00:54:15.787Z,956.33
2018-08-28T00:55:15.780Z,956.32
2018-08-28T00:56:15.774Z,956.36
2018-08-28T00:57:15.767Z,956.38
2018-08-28T00:58:15.759Z,956.35
2018-08-28T00:59:15.754Z,956.36
2018-08-28T01:00:15.748Z,956.41
2018-08-28T01:01:15.738Z,956.43
2018-08-28T01:02:15.728Z,956.41
2018-08-28T01:03:15.723Z,956.42
2018-08-28T01:04:15.715Z,956.45
2018-08-28T01:05:15.708Z,956.48
2018-08-28T01:06:15.710Z,956.5
2018-08-28T01:07:15.696Z,956.49
2018-08-28T01:08:15.688Z,956.54
2018-08-28T01:09:15.683Z,956.51
2018-08-28T01:10:15.674Z,956.5
2018-08-28T01:11:15.666Z,956.51
2018-08-28T01:12:15.660Z,956.51
2018-08-28T01:13:15.651Z,956.52
2018-08-28T01:14:15.646Z,956.5
2018-08-28T01:15:15.637Z,956.5
2018-08-28T01:16:15.630Z,956.49
2018-08-28T01:17:15.624Z,956.47
2018-08-28T01:18:15.617Z,956.48
2018-08-28T01:19:15.611Z,956.47
2018-08-28T01:20:15.604Z,956.47
2018-08-28T01:21:15.597Z,956.52
2018-08-28T01:22:15.589Z,956.5
2018-08-28T01:23:15.583Z,956.45
2018-08-28T01:24:15.575Z,956.47
2018-08-28T01:25:15.570Z,956.46
2018-08-28T01:26:15.563Z,956.43
2018-08-28T01:27:15.555Z,956.46
2018-08-28T01:28:15.547Z,956.47
2018-08-28T01:29:15.545Z,956.51
2018-08-28T01:30:15.540Z,956.51
2018-08-28T01:31:15.527Z,956.52
2018-08-28T01:32:15.522Z,956.56
2018-08-28T01:33:15.514Z,956.53
2018-08-28T01:34:15.508Z,956.56
2018-08-28T01:35:15.502Z,956.55
2018-08-28T01:36:15.495Z,956.49
2018-08-28T01:37:15.547Z,956.5
2018-08-28T01:38:15.482Z,956.49
2018-08-28T01:39:15.475Z,956.47
2018-08-28T01:40:15.469Z,956.5
2018-08-28T01:41:15.465Z,956.5
2018-08-28T01:42:15.454Z,956.47
2018-08-28T01:43:15.454Z,956.45
2018-08-28T01:44:15.440Z,956.46
2018-08-28T01:45:15.434Z,956.48
2018-08-28T01:46:15.427Z,956.49
2018-08-28T01:47:15.420Z,956.46
2018-08-28T01:48:15.414Z,956.47
2018-08-28T01:49:15.413Z,956.5
2018-08-28T01:50:15.403Z,956.49
2018-08-28T01:51:15.396Z,956.45
2018-08-28T01:52:15.389Z,956.46
2018-08-28T01:53:15.381Z,956.41
2018-08-28T01:54:15.374Z,956.44
2018-08-28T01:55:15.369Z,956.42
2018-08-28T01:56:15.363Z,956.39
2018-08-28T01:57:15.355Z,956.4
2018-08-28T01:58:15.349Z,956.4
2018-08-28T01:59:15.343Z,956.42
2018-08-28T02:00:15.336Z,956.4
2018-08-28T02:01:15.329Z,956.42
2018-08-28T02:02:15.324Z,956.46
2018-08-28T02:03:15.317Z,956.46
2018-08-28T02:04:15.311Z,956.41
2018-08-28T02:05:15.304Z,956.46
2018-08-28T02:06:15.307Z,956.52
2018-08-28T02:07:15.291Z,956.57
2018-08-28T02:08:15.285Z,956.57
2018-08-28T02:09:15.277Z,956.61
2018-08-28T02:10:15.269Z,956.6
2018-08-28T02:11:15.268Z,956.61
2018-08-28T02:12:15.258Z,956.65
2018-08-28T02:13:15.278Z,956.62
2018-08-28T02:14:15.245Z,956.65
2018-08-28T02:15:15.236Z,956.56
2018-08-28T02:16:15.229Z,956.58
2018-08-28T02:17:15.222Z,956.58
2018-08-28T02:18:15.219Z,956.61
2018-08-28T02:19:15.211Z,956.57
2018-08-28T02:20:15.204Z,956.56
2018-08-28T02:21:15.196Z,956.58
2018-08-28T02:22:15.201Z,956.58
2018-08-28T02:23:15.183Z,956.59
2018-08-28T02:24:15.177Z,956.59
2018-08-28T02:25:15.171Z,956.6
2018-08-28T02:26:15.164Z,956.64
2018-08-28T02:27:15.158Z,956.61
2018-08-28T02:28:15.152Z,956.61
2018-08-28T02:29:15.145Z,956.62
2018-08-28T02:30:15.142Z,956.62
2018-08-28T02:31:15.138Z,956.62
2018-08-28T02:32:15.126Z,956.64
2018-08-28T02:33:15.120Z,956.61
2018-08-28T02:34:15.112Z,956.61
2018-08-28T02:35:15.109Z,956.61
2018-08-28T02:36:15.099Z,956.57
2018-08-28T02:37:15.091Z,956.55
2018-08-28T02:38:15.090Z,956.59
2018-08-28T02:39:15.080Z,956.57
2018-08-28T02:40:15.075Z,956.59
2018-08-28T02:41:15.068Z,956.55
2018-08-28T02:42:15.060Z,956.64
2018-08-28T02:43:15.055Z,956.54
2018-08-28T02:44:15.048Z,956.56
2018-08-28T02:45:15.042Z,956.55
2018-08-28T02:46:15.035Z,956.5
2018-08-28T02:47:15.030Z,956.48
2018-08-28T02:48:15.031Z,956.48
2018-08-28T02:49:15.016Z,956.55
2018-08-28T02:50:15.009Z,956.53
2018-08-28T02:51:15.002Z,956.55
2018-08-28T02:52:14.996Z,956.55
2018-08-28T02:53:14.989Z,956.56
2018-08-28T02:54:14.983Z,956.57
2018-08-28T02:55:14.976Z,956.58
2018-08-28T02:56:15.032Z,956.55
2018-08-28T02:57:14.965Z,956.55
2018-08-28T02:58:14.956Z,956.56
2018-08-28T02:59:14.949Z,956.52
2018-08-28T03:00:14.942Z,956.58
2018-08-28T03:01:14.936Z,956.57
2018-08-28T03:02:14.930Z,956.56
2018-08-28T03:03:14.922Z,956.57
2018-08-28T03:04:14.916Z,956.57
2018-08-28T03:05:14.910Z,956.57
2018-08-28T03:06:14.902Z,956.62
2018-08-28T03:07:14.896Z,956.61
2018-08-28T03:08:14.889Z,956.65
2018-08-28T03:09:14.885Z,956.6
2018-08-28T03:10:14.875Z,956.52
2018-08-28T03:11:14.936Z,956.54
2018-08-28T03:12:14.860Z,956.61
2018-08-28T03:13:14.855Z,956.63
2018-08-28T03:14:14.848Z,956.68
2018-08-28T03:15:14.840Z,956.73
2018-08-28T03:16:14.834Z,956.7
2018-08-28T03:17:14.827Z,956.68
2018-08-28T03:18:14.825Z,956.7
2018-08-28T03:19:14.815Z,956.71
2018-08-28T03:20:14.808Z,956.71
2018-08-28T03:21:14.808Z,956.74
2018-08-28T03:22:14.795Z,956.75
2018-08-28T03:23:14.793Z,956.82
2018-08-28T03:24:14.785Z,956.79
2018-08-28T03:25:14.775Z,956.82
2018-08-28T03:26:14.770Z,956.88
2018-08-28T03:27:14.763Z,956.91
2018-08-28T03:28:14.756Z,956.93
2018-08-28T03:29:15.016Z,956.9
2018-08-28T03:30:14.744Z,956.98
2018-08-28T03:31:14.736Z,956.96
2018-08-28T03:32:14.729Z,956.98
2018-08-28T03:33:14.722Z,956.96
2018-08-28T03:34:14.717Z,956.98
2018-08-28T03:35:14.709Z,956.98
2018-08-28T03:36:14.702Z,956.96
2018-08-28T03:37:14.697Z,956.97
2018-08-28T03:38:14.699Z,956.97
2018-08-28T03:39:14.685Z,957.04
2018-08-28T03:40:14.678Z,957.04
2018-08-28T03:41:14.670Z,957.04
2018-08-28T03:42:14.664Z,957.05
2018-08-28T03:43:14.658Z,957.04
2018-08-28T03:44:14.651Z,957.06
2018-08-28T03:45:14.646Z,957.04
2018-08-28T03:46:14.640Z,957.02
2018-08-28T03:47:14.632Z,957.01
2018-08-28T03:48:14.626Z,957
2018-08-28T03:49:14.619Z,956.99
2018-08-28T03:50:14.612Z,956.96
2018-08-28T03:51:14.606Z,957.02
2018-08-28T03:52:14.609Z,957.05
2018-08-28T03:53:14.593Z,957.01
2018-08-28T03:54:14.587Z,957.04
2018-08-28T03:55:14.583Z,957.08
2018-08-28T03:56:14.575Z,957.08
2018-08-28T03:57:14.566Z,957.07
2018-08-28T03:58:14.561Z,957.05
2018-08-28T03:59:14.556Z,957.02
2018-08-28T04:00:14.549Z,956.98
2018-08-28T04:01:14.541Z,957.04
2018-08-28T04:02:14.537Z,957
2018-08-28T04:03:14.533Z,957.02
2018-08-28T04:04:14.524Z,957.05
2018-08-28T04:05:14.516Z,957.05
2018-08-28T04:06:14.510Z,957.09
2018-08-28T04:07:14.505Z,957.05
2018-08-28T04:08:14.501Z,957.09
2018-08-28T04:09:14.492Z,957.12
2018-08-28T04:10:14.485Z,957.18
2018-08-28T04:11:14.486Z,957.14
2018-08-28T04:12:14.472Z,957.13
2018-08-28T04:13:14.467Z,957.16
2018-08-28T04:14:14.460Z,957.16
2018-08-28T04:15:14.456Z,957.09
2018-08-28T04:16:14.448Z,957.06
2018-08-28T04:17:14.444Z,957.06
2018-08-28T04:18:14.437Z,957.08
2018-08-28T04:19:14.434Z,957.06
2018-08-28T04:20:14.427Z,957.09
2018-08-28T04:21:14.417Z,957.14
2018-08-28T04:22:14.413Z,957.11
2018-08-28T04:23:14.404Z,957.15
2018-08-28T04:24:14.399Z,957.14
2018-08-28T04:25:14.393Z,957.17
2018-08-28T04:26:14.390Z,957.23
2018-08-28T04:27:14.381Z,957.25
2018-08-28T04:28:14.375Z,957.25
2018-08-28T04:29:14.368Z,957.3
2018-08-28T04:30:14.363Z,957.31
2018-08-28T04:31:14.357Z,957.31
2018-08-28T04:32:14.350Z,957.3
2018-08-28T04:33:14.343Z,957.28
2018-08-28T04:34:14.338Z,957.32
2018-08-28T04:35:14.332Z,957.3
2018-08-28T04:36:14.325Z,957.3
2018-08-28T04:37:14.319Z,957.31
2018-08-28T04:38:14.312Z,957.3
2018-08-28T04:39:14.307Z,957.29
2018-08-28T04:40:14.305Z,957.31
2018-08-28T04:41:14.294Z,957.32
2018-08-28T04:42:14.289Z,957.32
2018-08-28T04:43:14.282Z,957.31
2018-08-28T04:44:14.280Z,957.34
2018-08-28T04:45:14.270Z,957.33
2018-08-28T04:46:14.264Z,957.37
2018-08-28T04:47:14.258Z,957.39
2018-08-28T04:48:14.252Z,957.38
2018-08-28T04:49:14.246Z,957.4
2018-08-28T04:50:14.241Z,957.42
2018-08-28T04:51:14.233Z,957.41
2018-08-28T04:52:14.227Z,957.39
2018-08-28T04:53:14.220Z,957.35
2018-08-28T04:54:14.237Z,957.37
2018-08-28T04:55:14.209Z,957.41
2018-08-28T04:56:14.203Z,957.42
2018-08-28T04:57:14.197Z,957.44
2018-08-28T04:58:14.190Z,957.44
2018-08-28T04:59:14.185Z,957.44
2018-08-28T05:00:14.179Z,957.43
2018-08-28T05:01:14.173Z,957.41
2018-08-28T05:02:14.167Z,957.41
2018-08-28T05:03:14.161Z,957.44
2018-08-28T05:04:14.155Z,957.48
2018-08-28T05:05:14.148Z,957.49
2018-08-28T05:06:14.143Z,957.47
2018-08-28T05:07:14.137Z,957.46
2018-08-28T05:08:14.130Z,957.49
2018-08-28T05:09:14.124Z,957.53
2018-08-28T05:10:14.118Z,957.5
2018-08-28T05:11:14.112Z,957.47
2018-08-28T05:12:14.106Z,957.51
2018-08-28T05:13:14.100Z,957.49
2018-08-28T05:14:14.094Z,957.52
2018-08-28T05:15:14.088Z,957.5
2018-08-28T05:16:14.082Z,957.53
2018-08-28T05:17:14.076Z,957.52
2018-08-28T05:18:14.069Z,957.53
2018-08-28T05:19:14.098Z,957.56
2018-08-28T05:20:14.059Z,957.53
2018-08-28T05:21:14.054Z,957.61
2018-08-28T05:22:14.046Z,957.58
2018-08-28T05:23:14.040Z,957.6
2018-08-28T05:24:14.035Z,957.6
2018-08-28T05:25:14.029Z,957.61
2018-08-28T05:26:14.022Z,957.6
2018-08-28T05:27:14.016Z,957.63
2018-08-28T05:28:14.011Z,957.64
2018-08-28T05:29:14.010Z,957.66
2018-08-28T05:30:14.000Z,957.63
2018-08-28T05:31:13.999Z,957.61
2018-08-28T05:32:13.987Z,957.65
2018-08-28T05:33:13.982Z,957.67
2018-08-28T05:34:13.976Z,957.68
2018-08-28T05:35:13.971Z,957.7
2018-08-28T05:36:13.965Z,957.71
2018-08-28T05:37:13.963Z,957.67
2018-08-28T05:38:13.954Z,957.69
2018-08-28T05:39:13.948Z,957.73
2018-08-28T05:40:13.942Z,957.72
2018-08-28T05:41:13.940Z,957.69
2018-08-28T05:42:13.930Z,957.76
2018-08-28T05:43:13.929Z,957.72
2018-08-28T05:44:13.921Z,957.74
2018-08-28T05:45:13.912Z,957.73
2018-08-28T05:46:13.907Z,957.72
2018-08-28T05:47:13.900Z,957.76
2018-08-28T05:48:13.896Z,957.76
2018-08-28T05:49:13.889Z,957.77
2018-08-28T05:50:13.885Z,957.78
2018-08-28T05:51:13.879Z,957.78
2018-08-28T05:52:13.873Z,957.8
2018-08-28T05:53:13.868Z,957.78
2018-08-28T05:54:13.861Z,957.8
2018-08-28T05:55:13.856Z,957.79
2018-08-28T05:56:14.030Z,957.76
2018-08-28T05:57:13.846Z,957.75
2018-08-28T05:58:13.840Z,957.73
2018-08-28T05:59:13.833Z,957.76
2018-08-28T06:00:13.832Z,957.75
2018-08-28T06:01:13.824Z,957.77
2018-08-28T06:02:13.818Z,957.74
2018-08-28T06:03:13.886Z,957.75
2018-08-28T06:04:13.807Z,957.79
2018-08-28T06:05:13.801Z,957.79
2018-08-28T06:06:13.795Z,957.82
2018-08-28T06:07:13.792Z,957.8
2018-08-28T06:08:13.787Z,957.82
2018-08-28T06:09:13.781Z,957.9
2018-08-28T06:10:13.776Z,957.92
2018-08-28T06:11:13.771Z,957.92
2018-08-28T06:12:13.766Z,957.95
2018-08-28T06:13:13.768Z,957.89
2018-08-28T06:14:13.756Z,957.91
2018-08-28T06:15:13.751Z,957.93
2018-08-28T06:16:13.745Z,957.9
2018-08-28T06:17:13.740Z,957.96
2018-08-28T06:18:13.736Z,957.96
2018-08-28T06:19:13.730Z,957.96
2018-08-28T06:20:13.725Z,958.01
2018-08-28T06:21:13.719Z,958.01
2018-08-28T06:22:13.718Z,957.98
2018-08-28T06:23:13.712Z,957.94
2018-08-28T06:24:13.706Z,957.92
2018-08-28T06:25:13.702Z,957.96
2018-08-28T06:26:13.697Z,957.94
2018-08-28T06:27:13.751Z,957.95
2018-08-28T06:28:13.687Z,957.94
2018-08-28T06:29:13.684Z,958
2018-08-28T06:30:13.680Z,958.01
2018-08-28T06:31:13.674Z,957.98
2018-08-28T06:32:13.673Z,958
2018-08-28T06:33:13.672Z,957.99
2018-08-28T06:34:13.662Z,958.09
2018-08-28T06:35:13.657Z,957.98
2018-08-28T06:36:13.654Z,958.03
2018-08-28T06:37:13.685Z,957.99
2018-08-28T06:38:13.648Z,957.99
2018-08-28T06:39:13.641Z,958.05
2018-08-28T06:40:13.637Z,958.04
2018-08-28T06:41:13.633Z,958.04
2018-08-28T06:42:13.627Z,958.03
2018-08-28T06:43:13.624Z,958.03
2018-08-28T06:44:13.620Z,958.04
2018-08-28T06:45:13.615Z,958.05
2018-08-28T06:46:13.612Z,958.01
2018-08-28T06:47:13.614Z,958.06
2018-08-28T06:48:13.604Z,958.03
2018-08-28T06:49:13.599Z,958.06
2018-08-28T06:50:13.594Z,958.04
2018-08-28T06:51:13.590Z,958.06
2018-08-28T06:52:13.587Z,958.04
2018-08-28T06:53:13.583Z,958.06
2018-08-28T06:54:13.580Z,958.05
2018-08-28T06:55:13.576Z,958.06
2018-08-28T06:56:13.570Z,958.07
2018-08-28T06:57:13.568Z,958.08
2018-08-28T06:58:13.563Z,958.07
2018-08-28T06:59:13.561Z,958.03
2018-08-28T07:00:13.556Z,958.09
2018-08-28T07:01:13.552Z,958.12
2018-08-28T07:02:13.558Z,958.09
2018-08-28T07:03:13.544Z,958.1
2018-08-28T07:04:13.538Z,958.09
2018-08-28T07:05:13.535Z,958.13
2018-08-28T07:06:13.532Z,958.11
2018-08-28T07:07:13.531Z,958.16
2018-08-28T07:08:13.524Z,958.14
2018-08-28T07:09:13.521Z,958.16
2018-08-28T07:10:13.580Z,958.17
2018-08-28T07:11:13.512Z,958.2
2018-08-28T07:12:13.510Z,958.2
2018-08-28T07:13:13.506Z,958.14
2018-08-28T07:14:13.502Z,958.19
2018-08-28T07:15:13.499Z,958.18
2018-08-28T07:16:13.494Z,958.2
2018-08-28T07:17:13.496Z,958.26
2018-08-28T07:18:13.487Z,958.2
2018-08-28T07:19:13.485Z,958.18
2018-08-28T07:20:13.482Z,958.17
2018-08-28T07:21:13.478Z,958.2
2018-08-28T07:22:13.473Z,958.2
2018-08-28T07:23:13.471Z,958.21
2018-08-28T07:24:13.467Z,958.18
2018-08-28T07:25:13.464Z,958.21
2018-08-28T07:26:13.460Z,958.21
2018-08-28T07:27:13.477Z,958.23
2018-08-28T07:28:13.455Z,958.24
2018-08-28T07:29:13.454Z,958.25
2018-08-28T07:30:13.470Z,958.27
2018-08-28T07:31:13.450Z,958.21
2018-08-28T07:32:13.442Z,958.23
2018-08-28T07:33:13.440Z,958.22
2018-08-28T07:34:13.439Z,958.21
2018-08-28T07:35:13.435Z,958.21
2018-08-28T07:36:13.432Z,958.23
2018-08-28T07:37:13.432Z,958.25
2018-08-28T07:38:13.428Z,958.25
2018-08-28T07:39:13.425Z,958.3
2018-08-28T07:40:13.422Z,958.3
2018-08-28T07:41:13.420Z,958.27
2018-08-28T07:42:13.418Z,958.3
2018-08-28T07:43:13.416Z,958.3
2018-08-28T07:44:13.411Z,958.31
2018-08-28T07:45:13.411Z,958.28
2018-08-28T07:46:13.410Z,958.28
2018-08-28T07:47:13.406Z,958.27
2018-08-28T07:48:13.448Z,958.25
2018-08-28T07:49:13.403Z,958.29
2018-08-28T07:50:13.400Z,958.3
2018-08-28T07:51:13.398Z,958.31
2018-08-28T07:52:13.394Z,958.34
2018-08-28T07:53:13.393Z,958.33
2018-08-28T07:54:13.389Z,958.37
2018-08-28T07:55:13.388Z,958.34
2018-08-28T07:56:13.385Z,958.35
2018-08-28T07:57:13.385Z,958.39
2018-08-28T07:58:13.381Z,958.38
2018-08-28T07:59:13.378Z,958.38
2018-08-28T08:00:13.383Z,958.38
2018-08-28T08:01:13.413Z,958.36
2018-08-28T08:02:13.372Z,958.4
2018-08-28T08:03:13.372Z,958.36
2018-08-28T08:04:13.373Z,958.42
2018-08-28T08:05:13.370Z,958.37
2018-08-28T08:06:13.367Z,958.42
2018-08-28T08:07:13.365Z,958.44
2018-08-28T08:08:13.362Z,958.43
2018-08-28T08:09:13.361Z,958.47
2018-08-28T08:10:13.361Z,958.45
2018-08-28T08:11:13.359Z,958.43
2018-08-28T08:12:13.357Z,958.41
2018-08-28T08:13:13.359Z,958.39
2018-08-28T08:14:13.354Z,958.38
2018-08-28T08:15:13.353Z,958.37
2018-08-28T08:16:13.409Z,958.39
2018-08-28T08:17:13.352Z,958.4
2018-08-28T08:18:13.349Z,958.37
2018-08-28T08:19:13.347Z,958.47
2018-08-28T08:20:13.345Z,958.47
2018-08-28T08:21:13.343Z,958.47
2018-08-28T08:22:13.364Z,958.49
2018-08-28T08:23:13.342Z,958.48
2018-08-28T08:24:13.341Z,958.47
2018-08-28T08:25:13.339Z,958.51
2018-08-28T08:26:13.337Z,958.53
2018-08-28T08:27:13.336Z,958.51
2018-08-28T08:28:13.452Z,958.52
2018-08-28T08:29:13.333Z,958.52
2018-08-28T08:30:13.332Z,958.55
2018-08-28T08:31:13.330Z,958.56
2018-08-28T08:32:13.329Z,958.54
2018-08-28T08:33:13.333Z,958.53
2018-08-28T08:34:13.329Z,958.52
2018-08-28T08:35:13.349Z,958.49
2018-08-28T08:36:13.326Z,958.53
2018-08-28T08:37:13.324Z,958.5
2018-08-28T08:38:13.324Z,958.48
2018-08-28T08:39:13.323Z,958.52
2018-08-28T08:40:13.319Z,958.52
2018-08-28T08:41:13.319Z,958.55
2018-08-28T08:42:13.316Z,958.56
2018-08-28T08:43:13.315Z,958.56
2018-08-28T08:44:13.313Z,958.54
2018-08-28T08:45:13.314Z,958.56
2018-08-28T08:46:13.310Z,958.55
2018-08-28T08:47:13.313Z,958.55
2018-08-28T08:48:13.310Z,958.54
2018-08-28T08:49:13.307Z,958.5
2018-08-28T08:50:13.344Z,958.52
2018-08-28T08:51:13.361Z,958.47
2018-08-28T08:52:13.305Z,958.46
2018-08-28T08:53:13.301Z,958.49
2018-08-28T08:54:13.300Z,958.51
2018-08-28T08:55:13.301Z,958.45
2018-08-28T08:56:13.298Z,958.57
2018-08-28T08:57:13.327Z,958.53
2018-08-28T08:58:13.295Z,958.54
2018-08-28T08:59:13.293Z,958.55
2018-08-28T09:00:13.293Z,958.53
2018-08-28T09:01:13.289Z,958.53
2018-08-28T09:02:13.290Z,958.51
2018-08-28T09:03:13.288Z,958.52
2018-08-28T09:04:13.286Z,958.54
2018-08-28T09:05:13.285Z,958.54
2018-08-28T09:06:13.442Z,958.54
2018-08-28T09:07:13.282Z,958.51
2018-08-28T09:08:13.282Z,958.53
2018-08-28T09:09:13.280Z,958.52
2018-08-28T09:10:13.278Z,958.54
2018-08-28T09:11:13.279Z,958.5
2018-08-28T09:12:13.297Z,958.5
2018-08-28T09:13:13.316Z,958.48
2018-08-28T09:14:13.275Z,958.49
2018-08-28T09:15:13.281Z,958.5
2018-08-28T09:16:13.273Z,958.46
2018-08-28T09:17:13.273Z,958.48
2018-08-28T09:18:13.271Z,958.5
2018-08-28T09:19:13.278Z,958.46
2018-08-28T09:20:13.269Z,958.44
2018-08-28T09:21:13.268Z,958.5
2018-08-28T09:22:13.267Z,958.5
2018-08-28T09:23:13.269Z,958.48
2018-08-28T09:24:13.264Z,958.49
2018-08-28T09:25:13.263Z,958.5
2018-08-28T09:26:13.261Z,958.53
2018-08-28T09:27:13.260Z,958.52
2018-08-28T09:28:13.259Z,958.53
2018-08-28T09:29:13.259Z,958.57
2018-08-28T09:30:13.260Z,958.53
2018-08-28T09:31:13.306Z,958.53
2018-08-28T09:32:13.296Z,958.54
2018-08-28T09:33:13.255Z,958.49
2018-08-28T09:34:13.253Z,958.49
2018-08-28T09:35:13.252Z,958.48
2018-08-28T09:36:13.252Z,958.5
2018-08-28T09:37:13.250Z,958.47
2018-08-28T09:38:13.278Z,958.48
2018-08-28T09:39:13.248Z,958.45
2018-08-28T09:40:13.248Z,958.44
2018-08-28T09:41:13.247Z,958.46
2018-08-28T09:42:13.247Z,958.46
2018-08-28T09:43:13.247Z,958.48
2018-08-28T09:44:13.245Z,958.46
2018-08-28T09:45:13.247Z,958.47
2018-08-28T09:46:13.246Z,958.47
2018-08-28T09:47:13.244Z,958.44
2018-08-28T09:48:13.402Z,958.46
2018-08-28T09:49:13.245Z,958.49
2018-08-28T09:50:13.317Z,958.49
2018-08-28T09:51:13.245Z,958.48
2018-08-28T09:52:13.245Z,958.47
2018-08-28T09:53:13.244Z,958.44
2018-08-28T09:54:13.258Z,958.49
2018-08-28T09:55:13.243Z,958.5
2018-08-28T09:56:13.244Z,958.5
2018-08-28T09:57:13.244Z,958.49
2018-08-28T09:58:13.244Z,958.44
2018-08-28T09:59:13.244Z,958.48
2018-08-28T10:00:13.243Z,958.48
2018-08-28T10:01:13.244Z,958.49
2018-08-28T10:02:13.244Z,958.49
2018-08-28T10:03:13.243Z,958.45
2018-08-28T10:04:13.243Z,958.5
2018-08-28T10:05:13.242Z,958.49
2018-08-28T10:06:13.245Z,958.53
2018-08-28T10:07:13.241Z,958.51
2018-08-28T10:08:13.242Z,958.53
2018-08-28T10:09:13.241Z,958.52
2018-08-28T10:10:13.240Z,958.52
2018-08-28T10:11:13.240Z,958.52
2018-08-28T10:12:13.241Z,958.51
2018-08-28T10:13:13.239Z,958.51
2018-08-28T10:14:13.238Z,958.55
2018-08-28T10:15:13.241Z,958.5
2018-08-28T10:16:13.237Z,958.51
2018-08-28T10:17:13.285Z,958.51
2018-08-28T10:18:13.236Z,958.49
2018-08-28T10:19:13.235Z,958.56
2018-08-28T10:20:13.236Z,958.56
2018-08-28T10:21:13.234Z,958.55
2018-08-28T10:22:13.234Z,958.55
2018-08-28T10:23:13.233Z,958.52
2018-08-28T10:24:13.233Z,958.54
2018-08-28T10:25:13.234Z,958.53
2018-08-28T10:26:13.230Z,958.54
2018-08-28T10:27:13.231Z,958.55
2018-08-28T10:28:13.229Z,958.55
2018-08-28T10:29:13.228Z,958.54
2018-08-28T10:30:13.288Z,958.52
2018-08-28T10:31:13.228Z,958.54
2018-08-28T10:32:13.230Z,958.5
2018-08-28T10:33:13.226Z,958.55
2018-08-28T10:34:13.227Z,958.44
2018-08-28T10:35:13.228Z,958.54
2018-08-28T10:36:13.227Z,958.53
2018-08-28T10:37:13.226Z,958.5
2018-08-28T10:38:13.296Z,958.45
2018-08-28T10:39:13.227Z,958.42
2018-08-28T10:40:13.226Z,958.43
2018-08-28T10:41:13.228Z,958.45
2018-08-28T10:42:13.227Z,958.48
2018-08-28T10:43:13.225Z,958.45
2018-08-28T10:44:13.229Z,958.43
2018-08-28T10:45:13.227Z,958.48
2018-08-28T10:46:13.288Z,958.49
2018-08-28T10:47:13.227Z,958.44
2018-08-28T10:48:13.230Z,958.43
2018-08-28T10:49:13.228Z,958.46
2018-08-28T10:50:13.226Z,958.48
2018-08-28T10:51:13.228Z,958.45
2018-08-28T10:52:13.228Z,958.49
2018-08-28T10:53:13.229Z,958.46
2018-08-28T10:54:13.229Z,958.45
2018-08-28T10:55:13.230Z,958.46
2018-08-28T10:56:13.230Z,958.45
2018-08-28T10:57:13.230Z,958.44
2018-08-28T10:58:13.230Z,958.44
2018-08-28T10:59:13.230Z,958.47
2018-08-28T11:00:13.231Z,958.51
2018-08-28T11:01:13.231Z,958.48
2018-08-28T11:02:13.230Z,958.48
2018-08-28T11:03:13.232Z,958.48
2018-08-28T11:04:13.233Z,958.53
2018-08-28T11:05:13.231Z,958.47
2018-08-28T11:06:13.278Z,958.45
2018-08-28T11:07:13.233Z,958.46
2018-08-28T11:08:13.233Z,958.48
2018-08-28T11:09:13.232Z,958.49
2018-08-28T11:10:13.235Z,958.48
2018-08-28T11:11:13.237Z,958.49
2018-08-28T11:12:13.232Z,958.54
2018-08-28T11:13:13.233Z,958.5
2018-08-28T11:14:13.233Z,958.49
2018-08-28T11:15:13.236Z,958.46
2018-08-28T11:16:13.394Z,958.47
2018-08-28T11:17:13.233Z,958.47
2018-08-28T11:18:13.233Z,958.51
2018-08-28T11:19:13.238Z,958.44
2018-08-28T11:20:13.238Z,958.46
2018-08-28T11:21:13.235Z,958.47
2018-08-28T11:22:13.238Z,958.51
2018-08-28T11:23:13.234Z,958.49
2018-08-28T11:24:13.234Z,958.52
2018-08-28T11:25:13.233Z,958.51
2018-08-28T11:26:13.235Z,958.52
2018-08-28T11:27:13.235Z,958.52
2018-08-28T11:28:13.234Z,958.43
2018-08-28T11:29:13.235Z,958.44
2018-08-28T11:30:13.234Z,958.48
2018-08-28T11:31:13.248Z,958.48
2018-08-28T11:32:13.234Z,958.47
2018-08-28T11:33:13.232Z,958.49
2018-08-28T11:34:13.233Z,958.45
2018-08-28T11:35:13.233Z,958.46
2018-08-28T11:36:13.232Z,958.5
2018-08-28T11:37:13.235Z,958.48
2018-08-28T11:38:13.322Z,958.51
2018-08-28T11:39:13.233Z,958.53
2018-08-28T11:40:13.245Z,958.49
2018-08-28T11:41:13.232Z,958.53
2018-08-28T11:42:13.232Z,958.52
2018-08-28T11:43:13.231Z,958.49
2018-08-28T11:44:13.232Z,958.53
2018-08-28T11:45:13.232Z,958.46
2018-08-28T11:46:13.231Z,958.46
2018-08-28T11:47:13.315Z,958.48
2018-08-28T11:48:13.232Z,958.47
2018-08-28T11:49:13.233Z,958.46
2018-08-28T11:50:13.238Z,958.47
2018-08-28T11:51:13.233Z,958.46
2018-08-28T11:52:13.236Z,958.44
2018-08-28T11:53:13.291Z,958.44
2018-08-28T11:54:13.233Z,958.48
2018-08-28T11:55:13.233Z,958.49
2018-08-28T11:56:13.232Z,958.44
2018-08-28T11:57:13.234Z,958.52
2018-08-28T11:58:13.238Z,958.51
2018-08-28T11:59:13.240Z,958.53
2018-08-28T12:00:13.234Z,958.54
2018-08-28T12:01:13.236Z,958.53
2018-08-28T12:02:13.236Z,958.49
2018-08-28T12:03:13.235Z,958.48
2018-08-28T12:04:13.237Z,958.48
2018-08-28T12:05:13.323Z,958.51
2018-08-28T12:06:13.236Z,958.47
2018-08-28T12:07:13.288Z,958.46
2018-08-28T12:08:13.234Z,958.45
2018-08-28T12:09:13.233Z,958.41
2018-08-28T12:10:13.236Z,958.41
2018-08-28T12:11:13.232Z,958.39
2018-08-28T12:12:13.233Z,958.35
2018-08-28T12:13:13.293Z,958.31
2018-08-28T12:14:13.232Z,958.31
2018-08-28T12:15:13.233Z,958.29
2018-08-28T12:16:13.233Z,958.3
2018-08-28T12:17:13.232Z,958.3
2018-08-28T12:18:13.231Z,958.26
2018-08-28T12:19:13.235Z,958.26
2018-08-28T12:20:13.233Z,958.28
2018-08-28T12:21:13.232Z,958.27
2018-08-28T12:22:13.231Z,958.25
2018-08-28T12:23:13.232Z,958.25
2018-08-28T12:24:13.233Z,958.3
2018-08-28T12:25:13.232Z,958.25
2018-08-28T12:26:13.232Z,958.22
2018-08-28T12:27:13.233Z,958.23
2018-08-28T12:28:13.234Z,958.19
2018-08-28T12:29:13.236Z,958.17
2018-08-28T12:30:13.234Z,958.24
2018-08-28T12:31:13.235Z,958.23